createdAt,value
2019-06-20T00:00:36.288Z,20.50
2019-06-20T00:03:08.577Z,20.50
2019-06-20T00:05:40.669Z,20.50
2019-06-20T00:08:13.246Z,20.40
2019-06-20T00:10:44.930Z,20.40
2019-06-20T00:13:16.773Z,20.40
2019-06-20T00:15:48.735Z,20.40
2019-06-20T00:18:20.636Z,20.30
2019-06-20T00:20:52.508Z,20.30
2019-06-20T00:23:24.319Z,20.30
2019-06-20T00:25:56.387Z,20.30
2019-06-20T00:28:28.161Z,20.20
2019-06-20T00:30:59.995Z,20.30
2019-06-20T00:33:31.885Z,20.30
2019-06-20T00:36:03.641Z,20.30
2019-06-20T00:38:35.622Z,20.30
2019-06-20T00:41:07.557Z,20.30
2019-06-20T00:43:39.402Z,20.30
2019-06-20T00:46:11.215Z,20.30
2019-06-20T00:48:43.067Z,20.30
2019-06-20T00:51:14.949Z,20.20
2019-06-20T00:53:46.804Z,20.20
2019-06-20T00:56:18.650Z,20.20
2019-06-20T00:58:50.423Z,20.20
2019-06-20T01:01:22.064Z,20.20
2019-06-20T01:03:54.055Z,20.20
2019-06-20T01:06:26.369Z,20.10
2019-06-20T01:08:57.811Z,20.10
2019-06-20T01:11:29.585Z,20.10
2019-06-20T01:14:01.323Z,20.10
2019-06-20T01:16:33.205Z,20.10
2019-06-20T01:19:05.112Z,20.10
2019-06-20T01:21:37.078Z,20.10
2019-06-20T01:24:08.805Z,20.00
2019-06-20T01:26:40.684Z,20.00
2019-06-20T01:29:12.460Z,20.00
2019-06-20T01:31:44.387Z,20.00
2019-06-20T01:34:16.280Z,20.00
2019-06-20T01:36:48.226Z,20.00
2019-06-20T01:39:20.020Z,19.90
2019-06-20T01:41:51.649Z,19.90
2019-06-20T01:44:23.457Z,19.90
2019-06-20T01:46:55.407Z,19.90
2019-06-20T01:49:27.261Z,19.90
2019-06-20T01:51:59.103Z,19.90
2019-06-20T01:54:31.001Z,19.90
2019-06-20T01:57:02.860Z,19.80
2019-06-20T01:59:34.589Z,19.80
2019-06-20T02:02:07.743Z,19.80
2019-06-20T02:04:39.616Z,19.80
2019-06-20T02:07:11.473Z,19.90
2019-06-20T02:09:43.496Z,19.90
2019-06-20T02:12:15.316Z,19.90
2019-06-20T02:14:47.092Z,19.90
2019-06-20T02:17:18.973Z,20.00
2019-06-20T02:19:50.755Z,20.00
2019-06-20T02:22:22.577Z,20.00
2019-06-20T02:24:54.380Z,20.00
2019-06-20T02:27:26.235Z,20.10
2019-06-20T02:29:57.914Z,20.10
2019-06-20T02:32:29.827Z,20.10
2019-06-20T02:35:01.593Z,20.10
2019-06-20T02:37:33.434Z,20.10
2019-06-20T02:40:05.409Z,20.10
2019-06-20T02:42:37.344Z,20.10
2019-06-20T02:45:09.342Z,20.20
2019-06-20T02:47:41.375Z,20.20
2019-06-20T02:50:13.384Z,20.20
2019-06-20T02:52:45.245Z,20.20
2019-06-20T02:55:17.457Z,20.20
2019-06-20T02:57:49.316Z,20.20
2019-06-20T03:00:30.734Z,20.20
2019-06-20T03:03:02.805Z,20.20
2019-06-20T03:05:34.703Z,20.30
2019-06-20T03:08:06.863Z,20.30
2019-06-20T03:10:39.005Z,20.30
2019-06-20T03:13:10.801Z,20.40
2019-06-20T03:15:42.587Z,20.40
2019-06-20T03:18:14.460Z,20.40
2019-06-20T03:20:46.359Z,20.50
2019-06-20T03:23:18.378Z,20.50
2019-06-20T03:25:50.228Z,20.50
2019-06-20T03:28:21.946Z,20.50
2019-06-20T03:30:53.748Z,20.60
2019-06-20T03:33:25.482Z,20.60
2019-06-20T03:35:56.648Z,20.60
2019-06-20T03:38:30.582Z,20.60
2019-06-20T03:41:02.525Z,20.70
2019-06-20T03:43:34.501Z,20.60
2019-06-20T03:46:06.415Z,20.70
2019-06-20T03:48:38.580Z,20.70
2019-06-20T03:51:10.475Z,20.80
2019-06-20T03:53:42.315Z,20.90
2019-06-20T03:56:15.687Z,20.90
2019-06-20T03:58:47.508Z,20.90
2019-06-20T04:01:19.337Z,20.90
2019-06-20T04:03:51.149Z,20.90
2019-06-20T04:06:23.094Z,20.90
2019-06-20T04:08:55.446Z,21.00
2019-06-20T04:11:27.567Z,21.00
2019-06-20T04:13:59.435Z,21.00
2019-06-20T04:16:31.209Z,21.00
2019-06-20T04:19:03.042Z,21.00
2019-06-20T04:21:34.853Z,21.10
2019-06-20T04:24:06.455Z,21.10
2019-06-20T04:26:38.220Z,21.20
2019-06-20T04:29:10.065Z,21.30
2019-06-20T04:31:41.992Z,21.40
2019-06-20T04:34:18.857Z,21.50
2019-06-20T04:36:50.687Z,21.70
2019-06-20T04:39:22.458Z,21.80
2019-06-20T04:41:54.543Z,22.00
2019-06-20T04:44:26.268Z,22.20
2019-06-20T04:47:04.271Z,22.30
2019-06-20T04:49:37.261Z,22.50
2019-06-20T04:52:09.366Z,22.70
2019-06-20T04:54:41.348Z,22.90
2019-06-20T04:57:13.635Z,23.20
2019-06-20T04:59:48.383Z,23.40
2019-06-20T05:02:36.928Z,23.50
2019-06-20T05:05:09.319Z,23.60
2019-06-20T05:07:41.447Z,23.80
2019-06-20T05:10:14.409Z,24.00
2019-06-20T05:12:46.209Z,24.10
2019-06-20T05:15:18.108Z,24.40
2019-06-20T05:17:50.139Z,24.60
2019-06-20T05:20:22.177Z,24.80
2019-06-20T05:22:54.280Z,25.20
2019-06-20T05:25:26.233Z,25.30
2019-06-20T05:27:58.186Z,25.30
2019-06-20T05:30:30.255Z,25.20
2019-06-20T05:33:02.523Z,24.90
2019-06-20T05:35:34.353Z,24.60
2019-06-20T05:38:06.235Z,24.40
2019-06-20T05:40:38.159Z,24.30
2019-06-20T05:43:10.107Z,24.10
2019-06-20T05:45:46.138Z,24.00
2019-06-20T05:48:15.875Z,23.90
2019-06-20T05:50:47.518Z,23.80
2019-06-20T05:53:19.521Z,23.70
2019-06-20T05:55:51.415Z,23.60
2019-06-20T05:58:23.406Z,23.60
2019-06-20T06:00:55.215Z,23.60
2019-06-20T06:03:27.093Z,23.60
2019-06-20T06:05:58.913Z,23.60
2019-06-20T06:08:31.147Z,23.70
2019-06-20T06:11:03.195Z,23.80
2019-06-20T06:13:34.993Z,23.80
2019-06-20T06:16:06.981Z,23.80
2019-06-20T06:18:39.287Z,23.80
2019-06-20T06:21:11.253Z,23.80
2019-06-20T06:23:43.300Z,23.80
2019-06-20T06:26:15.257Z,23.80
2019-06-20T06:28:47.182Z,23.70
2019-06-20T06:31:19.334Z,23.60
2019-06-20T06:33:51.392Z,23.50
2019-06-20T06:36:23.437Z,23.50
2019-06-20T06:38:55.437Z,23.40
2019-06-20T06:41:27.480Z,23.40
2019-06-20T06:43:59.584Z,23.40
2019-06-20T06:46:43.589Z,23.40
2019-06-20T06:49:05.277Z,23.40
2019-06-20T06:51:38.297Z,23.40
2019-06-20T06:54:10.448Z,23.50
2019-06-20T06:56:42.336Z,23.60
2019-06-20T06:59:14.507Z,23.70
2019-06-20T07:01:46.556Z,23.80
2019-06-20T07:04:18.621Z,23.90
2019-06-20T07:06:50.787Z,24.00
2019-06-20T07:09:23.039Z,24.10
2019-06-20T07:11:55.221Z,24.20
2019-06-20T07:14:27.310Z,24.20
2019-06-20T07:17:00.661Z,24.30
2019-06-20T07:19:32.914Z,24.40
2019-06-20T07:22:05.096Z,24.40
2019-06-20T07:24:37.748Z,24.40
2019-06-20T07:27:09.811Z,24.40
2019-06-20T07:29:41.834Z,24.40
2019-06-20T07:32:13.908Z,24.40
2019-06-20T07:34:45.475Z,24.50
2019-06-20T07:37:17.412Z,24.60
2019-06-20T07:39:49.493Z,24.80
2019-06-20T07:42:21.588Z,24.90
2019-06-20T07:44:53.575Z,25.00
2019-06-20T07:47:25.777Z,25.20
2019-06-20T07:49:57.894Z,25.40
2019-06-20T07:52:30.104Z,25.50
2019-06-20T07:55:01.591Z,25.70
2019-06-20T07:57:33.803Z,25.90
2019-06-20T08:00:06.584Z,26.20
2019-06-20T08:02:38.711Z,26.50
2019-06-20T08:05:11.719Z,26.70
2019-06-20T08:07:43.465Z,26.90
2019-06-20T08:10:16.273Z,27.10
2019-06-20T08:12:48.234Z,27.40
2019-06-20T08:15:21.167Z,27.60
2019-06-20T08:17:52.982Z,28.00
2019-06-20T08:20:25.201Z,28.60
2019-06-20T08:22:57.348Z,29.10
2019-06-20T08:25:29.606Z,29.30
2019-06-20T08:28:02.334Z,29.30
2019-06-20T08:30:36.011Z,29.10
2019-06-20T08:33:11.866Z,29.10
2019-06-20T08:35:43.149Z,29.20
2019-06-20T08:38:15.367Z,29.40
2019-06-20T08:40:47.223Z,29.50
2019-06-20T08:43:18.879Z,29.40
2019-06-20T08:45:50.792Z,29.60
2019-06-20T08:48:22.513Z,29.70
2019-06-20T08:50:56.790Z,29.80
2019-06-20T08:53:28.387Z,30.00
2019-06-20T08:56:00.939Z,29.90
2019-06-20T08:58:32.995Z,29.70
2019-06-20T09:03:37.204Z,29.70
2019-06-20T09:06:09.550Z,29.70
2019-06-20T09:08:42.038Z,29.70
2019-06-20T09:11:14.301Z,29.90
2019-06-20T09:13:46.284Z,29.90
2019-06-20T09:16:24.499Z,29.90
2019-06-20T09:18:53.301Z,29.90
2019-06-20T09:21:25.411Z,29.90
2019-06-20T09:23:57.767Z,29.70
2019-06-20T09:26:29.871Z,29.40
2019-06-20T09:29:01.994Z,29.10
2019-06-20T09:31:37.059Z,28.80
2019-06-20T09:34:09.183Z,28.70
2019-06-20T09:36:41.214Z,28.70
2019-06-20T09:39:13.129Z,28.50
2019-06-20T09:41:45.377Z,28.30
2019-06-20T09:44:17.253Z,28.20
2019-06-20T09:46:49.808Z,28.00
2019-06-20T09:49:22.909Z,27.80
2019-06-20T09:51:56.535Z,27.70
2019-06-20T09:54:28.730Z,27.50
2019-06-20T09:57:00.528Z,27.50
2019-06-20T09:59:32.545Z,27.40
2019-06-20T10:02:04.885Z,27.30
2019-06-20T10:04:37.454Z,27.20
2019-06-20T10:07:10.050Z,27.20
2019-06-20T10:09:42.411Z,27.20
2019-06-20T10:12:14.877Z,27.20
2019-06-20T10:14:49.507Z,27.20
2019-06-20T10:17:21.480Z,27.20
2019-06-20T10:19:54.097Z,27.20
2019-06-20T10:22:25.835Z,27.10
2019-06-20T10:25:05.626Z,27.20
2019-06-20T10:27:37.649Z,27.20
2019-06-20T10:30:14.606Z,27.10
2019-06-20T10:32:45.319Z,27.10
2019-06-20T10:35:18.443Z,27.10
2019-06-20T10:37:50.823Z,27.20
2019-06-20T10:40:24.784Z,27.20
2019-06-20T10:42:57.160Z,27.30
2019-06-20T10:45:29.698Z,27.30
2019-06-20T10:48:04.061Z,27.30
2019-06-20T10:50:37.055Z,27.30
2019-06-20T10:53:09.121Z,27.50
2019-06-20T10:55:42.071Z,27.70
2019-06-20T10:58:14.476Z,28.00
2019-06-20T11:00:48.380Z,28.20
2019-06-20T11:03:20.539Z,28.30
2019-06-20T11:05:53.687Z,28.30
2019-06-20T11:08:25.852Z,28.30
2019-06-20T11:10:58.266Z,28.50
2019-06-20T11:13:30.269Z,28.60
2019-06-20T11:16:02.426Z,28.70
2019-06-20T11:18:34.819Z,28.90
2019-06-20T11:21:07.044Z,28.90
2019-06-20T11:23:40.876Z,28.90
2019-06-20T11:26:13.103Z,28.90
2019-06-20T11:28:45.117Z,28.90
2019-06-20T11:31:17.079Z,28.90
2019-06-20T11:33:48.935Z,28.90
2019-06-20T11:36:20.959Z,28.90
2019-06-20T11:38:52.903Z,29.10
2019-06-20T11:41:25.045Z,29.30
2019-06-20T11:43:56.792Z,29.30
2019-06-20T11:46:28.899Z,29.50
2019-06-20T11:49:01.298Z,29.60
2019-06-20T11:51:34.367Z,29.70
2019-06-20T11:54:07.250Z,29.90
2019-06-20T11:56:39.436Z,29.80
2019-06-20T11:59:11.488Z,29.70
2019-06-20T12:01:44.904Z,29.50
2019-06-20T12:04:17.274Z,29.30
2019-06-20T12:06:49.308Z,29.20
2019-06-20T12:09:21.413Z,28.90
2019-06-20T12:11:53.567Z,28.90
2019-06-20T12:14:25.378Z,28.90
2019-06-20T12:16:57.228Z,28.80
2019-06-20T12:19:29.557Z,28.80
2019-06-20T12:22:01.894Z,28.80
2019-06-20T12:24:34.311Z,28.80
2019-06-20T12:27:06.559Z,28.80
2019-06-20T12:29:39.412Z,28.80
2019-06-20T12:32:12.247Z,28.80
2019-06-20T12:34:44.551Z,28.70
2019-06-20T12:37:16.741Z,28.80
2019-06-20T12:39:49.859Z,28.70
2019-06-20T12:42:22.007Z,28.70
2019-06-20T12:44:54.609Z,28.70
2019-06-20T12:47:26.772Z,28.70
2019-06-20T12:49:58.954Z,28.70
2019-06-20T12:52:31.031Z,28.70
2019-06-20T12:55:03.310Z,28.70
2019-06-20T12:57:35.208Z,28.90
2019-06-20T13:00:08.158Z,29.00
2019-06-20T13:02:41.802Z,29.10
2019-06-20T13:05:15.322Z,29.20
2019-06-20T13:07:47.401Z,29.20
2019-06-20T13:10:19.622Z,29.20
2019-06-20T13:12:51.680Z,29.20
2019-06-20T13:15:23.663Z,29.10
2019-06-20T13:17:55.761Z,29.10
2019-06-20T13:20:28.135Z,29.00
2019-06-20T13:23:00.482Z,28.90
2019-06-20T13:25:32.577Z,28.90
2019-06-20T13:28:04.435Z,28.90
2019-06-20T13:30:36.497Z,28.80
2019-06-20T13:33:08.602Z,28.80
2019-06-20T13:35:42.337Z,28.80
2019-06-20T13:38:14.671Z,28.90
2019-06-20T13:40:47.236Z,29.00
2019-06-20T13:43:19.511Z,29.10
2019-06-20T13:45:52.170Z,29.20
2019-06-20T13:48:24.147Z,29.40
2019-06-20T13:50:56.496Z,29.60
2019-06-20T13:53:28.732Z,29.70
2019-06-20T13:56:00.851Z,30.00
2019-06-20T13:58:32.925Z,30.30
2019-06-20T14:01:05.239Z,30.40
2019-06-20T14:03:37.420Z,30.60
2019-06-20T14:06:09.537Z,30.60
2019-06-20T14:08:42.905Z,30.60
2019-06-20T14:11:15.471Z,30.70
2019-06-20T14:13:51.109Z,30.80
2019-06-20T14:16:21.523Z,30.80
2019-06-20T14:18:53.406Z,30.60
2019-06-20T14:21:25.913Z,30.60
2019-06-20T14:23:57.857Z,30.60
2019-06-20T14:26:29.943Z,30.60
2019-06-20T14:29:01.937Z,30.60
2019-06-20T14:31:34.324Z,30.60
2019-06-20T14:34:06.207Z,30.70
2019-06-20T14:36:38.393Z,30.70
2019-06-20T14:39:10.369Z,30.70
2019-06-20T14:41:42.075Z,30.60
2019-06-20T14:44:16.600Z,30.50
2019-06-20T14:46:50.509Z,30.40
2019-06-20T14:49:23.251Z,30.30
2019-06-20T14:51:56.191Z,30.30
2019-06-20T14:54:28.197Z,30.10
2019-06-20T14:57:00.227Z,29.90
2019-06-20T14:59:35.426Z,29.70
2019-06-20T15:02:07.547Z,29.70
2019-06-20T15:04:39.593Z,29.70
2019-06-20T15:07:12.234Z,29.60
2019-06-20T15:09:45.896Z,29.60
2019-06-20T15:12:17.947Z,29.50
2019-06-20T15:14:51.428Z,29.40
2019-06-20T15:17:23.891Z,29.30
2019-06-20T15:19:56.251Z,29.30
2019-06-20T15:22:28.321Z,29.30
2019-06-20T15:25:01.066Z,29.50
2019-06-20T15:27:33.063Z,29.60
2019-06-20T15:30:05.463Z,29.50
2019-06-20T15:32:37.209Z,29.50
2019-06-20T15:35:11.307Z,29.50
2019-06-20T15:37:43.414Z,29.60
2019-06-20T15:40:16.121Z,29.60
2019-06-20T15:42:49.615Z,29.70
2019-06-20T15:45:23.981Z,29.70
2019-06-20T15:47:57.896Z,29.70
2019-06-20T15:50:30.548Z,29.70
2019-06-20T15:53:02.675Z,29.70
2019-06-20T15:55:35.034Z,29.80
2019-06-20T15:58:07.403Z,29.80
2019-06-20T16:00:40.004Z,29.80
2019-06-20T16:03:14.552Z,29.80
2019-06-20T16:05:45.727Z,29.90
2019-06-20T16:08:17.827Z,29.90
2019-06-20T16:10:51.397Z,30.00
2019-06-20T16:13:23.650Z,30.00
2019-06-20T16:15:55.867Z,30.00
2019-06-20T16:18:27.940Z,30.10
2019-06-20T16:21:00.067Z,30.10
2019-06-20T16:23:32.177Z,30.30
2019-06-20T16:26:04.295Z,30.40
2019-06-20T16:28:36.057Z,30.60
2019-06-20T16:31:10.277Z,30.70
2019-06-20T16:33:41.736Z,30.70
2019-06-20T16:36:13.900Z,30.80
2019-06-20T16:38:46.319Z,30.70
2019-06-20T16:41:18.693Z,30.60
2019-06-20T16:43:50.740Z,30.50
2019-06-20T16:46:22.773Z,30.60
2019-06-20T16:48:54.979Z,30.70
2019-06-20T16:51:27.024Z,30.70
2019-06-20T16:53:58.977Z,30.60
2019-06-20T16:56:31.512Z,30.50
2019-06-20T16:59:28.966Z,30.30
2019-06-20T17:02:01.005Z,30.20
2019-06-20T17:04:33.706Z,30.00
2019-06-20T17:07:05.964Z,29.70
2019-06-20T17:09:37.972Z,29.60
2019-06-20T17:12:11.246Z,29.40
2019-06-20T17:14:43.475Z,29.20
2019-06-20T17:17:16.047Z,29.00
2019-06-20T17:19:47.875Z,28.80
2019-06-20T17:22:20.477Z,28.70
2019-06-20T17:24:52.644Z,28.50
2019-06-20T17:27:24.825Z,28.30
2019-06-20T17:29:57.440Z,28.20
2019-06-20T17:32:29.622Z,28.10
2019-06-20T17:35:01.612Z,28.00
2019-06-20T17:37:33.550Z,27.90
2019-06-20T17:40:07.000Z,27.80
2019-06-20T17:42:39.233Z,27.70
2019-06-20T17:45:12.089Z,27.60
2019-06-20T17:47:44.128Z,27.50
2019-06-20T17:50:16.060Z,27.40
2019-06-20T17:53:13.616Z,27.40
2019-06-20T17:55:45.379Z,27.40
2019-06-20T17:58:45.547Z,27.30
2019-06-20T18:01:17.668Z,27.30
2019-06-20T18:03:49.820Z,27.30
2019-06-20T18:06:21.962Z,27.20
2019-06-20T18:08:53.806Z,27.20
2019-06-20T18:11:26.047Z,27.20
2019-06-20T18:13:58.289Z,27.10
2019-06-20T18:16:30.361Z,27.10
2019-06-20T18:19:26.964Z,27.10
2019-06-20T18:21:59.419Z,27.00
2019-06-20T18:24:31.438Z,27.00
2019-06-20T18:27:03.551Z,26.90
2019-06-20T18:29:35.646Z,26.90
2019-06-20T18:32:33.414Z,26.80
2019-06-20T18:35:06.193Z,26.80
2019-06-20T18:37:38.655Z,26.70
2019-06-20T18:40:11.161Z,26.70
2019-06-20T18:42:43.334Z,26.70
2019-06-20T18:45:15.653Z,26.70
2019-06-20T18:47:47.925Z,26.60
2019-06-20T18:50:20.034Z,26.60
2019-06-20T18:52:52.922Z,26.60
2019-06-20T18:55:24.752Z,26.60
2019-06-20T18:58:26.541Z,26.60
2019-06-20T19:00:58.945Z,26.60
2019-06-20T19:03:31.079Z,26.50
2019-06-20T19:06:03.304Z,26.50
2019-06-20T19:08:35.695Z,26.50
2019-06-20T19:11:07.779Z,26.50
2019-06-20T19:13:39.761Z,26.50
2019-06-20T19:16:11.897Z,26.50
2019-06-20T19:18:44.548Z,26.40
2019-06-20T19:21:16.764Z,26.40
2019-06-20T19:23:48.739Z,26.40
2019-06-20T19:26:20.686Z,26.30
2019-06-20T19:28:53.122Z,26.30
2019-06-20T19:31:26.268Z,26.20
2019-06-20T19:33:58.105Z,26.20
2019-06-20T19:36:30.188Z,26.10
2019-06-20T19:39:02.028Z,26.00
2019-06-20T19:41:34.225Z,26.00
2019-06-20T19:44:06.308Z,25.90
2019-06-20T19:46:38.573Z,25.90
2019-06-20T19:49:10.882Z,25.80
2019-06-20T19:51:43.081Z,25.80
2019-06-20T19:54:14.888Z,25.70
2019-06-20T19:56:46.500Z,25.60
2019-06-20T19:59:18.699Z,25.50
2019-06-20T20:01:50.867Z,25.50
2019-06-20T20:04:22.963Z,25.50
2019-06-20T20:06:54.907Z,25.50
2019-06-20T20:09:26.604Z,25.50
2019-06-20T20:11:58.627Z,25.40
2019-06-20T20:14:30.799Z,25.40
2019-06-20T20:17:02.458Z,25.40
2019-06-20T20:19:34.523Z,25.40
2019-06-20T20:22:06.771Z,25.30
2019-06-20T20:24:38.819Z,25.30
2019-06-20T20:27:10.528Z,25.30
2019-06-20T20:29:42.767Z,25.20
2019-06-20T20:32:15.366Z,25.20
2019-06-20T20:34:48.333Z,25.20
2019-06-20T20:37:20.196Z,25.20
2019-06-20T20:39:52.231Z,25.20
2019-06-20T20:42:24.206Z,25.10
2019-06-20T20:44:55.573Z,25.00
2019-06-20T20:47:28.496Z,24.90
2019-06-20T20:50:02.967Z,24.80
2019-06-20T20:52:34.523Z,24.70
2019-06-20T20:55:07.013Z,24.60
2019-06-20T20:57:38.997Z,24.60
2019-06-20T21:00:11.948Z,24.50
2019-06-20T21:02:43.727Z,24.50
2019-06-20T21:05:15.515Z,24.40
2019-06-20T21:07:47.004Z,24.30
2019-06-20T21:10:19.140Z,24.20
2019-06-20T21:12:51.271Z,24.10
2019-06-20T21:15:23.456Z,24.10
2019-06-20T21:17:55.879Z,24.00
2019-06-20T21:20:27.846Z,24.00
2019-06-20T21:22:59.855Z,23.90
2019-06-20T21:25:32.443Z,23.80
2019-06-20T21:28:04.997Z,23.80
2019-06-20T21:30:36.912Z,23.80
2019-06-20T21:33:09.088Z,23.80
2019-06-20T21:35:41.279Z,23.70
2019-06-20T21:38:13.375Z,23.80
2019-06-20T21:40:45.381Z,23.80
2019-06-20T21:43:17.195Z,23.80
2019-06-20T21:45:49.254Z,23.80
2019-06-20T21:48:21.194Z,23.80
2019-06-20T21:50:53.049Z,23.80
2019-06-20T21:53:24.747Z,23.90
2019-06-20T21:55:56.848Z,23.80
2019-06-20T21:58:28.843Z,23.80
2019-06-20T22:01:02.415Z,23.70
2019-06-20T22:03:34.519Z,23.60
2019-06-20T22:06:06.688Z,23.60
2019-06-20T22:08:38.606Z,23.40
2019-06-20T22:11:10.598Z,23.20
2019-06-20T22:13:45.234Z,23.10
2019-06-20T22:16:17.100Z,22.90
2019-06-20T22:18:49.221Z,22.60
2019-06-20T22:21:21.167Z,22.40
2019-06-20T22:23:54.447Z,22.10
2019-06-20T22:26:26.002Z,21.80
2019-06-20T22:28:59.681Z,21.60
2019-06-20T22:31:31.818Z,21.40
2019-06-20T22:34:03.825Z,21.20
2019-06-20T22:36:40.055Z,21.00
2019-06-20T22:39:10.263Z,20.80
2019-06-20T22:41:42.468Z,20.70
2019-06-20T22:44:14.357Z,20.50
2019-06-20T22:46:46.299Z,20.40
2019-06-20T22:49:18.229Z,20.30
2019-06-20T22:51:50.119Z,20.30
2019-06-20T22:54:22.105Z,20.20
2019-06-20T22:56:53.998Z,20.10
2019-06-20T22:59:25.815Z,20.00
2019-06-20T23:01:57.774Z,19.90
2019-06-20T23:04:29.772Z,19.80
2019-06-20T23:07:01.870Z,19.90
2019-06-20T23:09:33.646Z,19.90
2019-06-20T23:12:05.530Z,20.00
2019-06-20T23:14:37.408Z,20.00
2019-06-20T23:17:09.241Z,20.00
2019-06-20T23:19:41.153Z,20.00
2019-06-20T23:22:13.053Z,20.10
2019-06-20T23:24:45.160Z,20.10
2019-06-20T23:27:17.194Z,20.10
2019-06-20T23:29:48.891Z,20.10
2019-06-20T23:32:21.231Z,20.10
2019-06-20T23:34:53.655Z,20.10
2019-06-20T23:37:25.539Z,20.10
2019-06-20T23:39:57.309Z,20.10
2019-06-20T23:42:29.324Z,20.10
2019-06-20T23:45:01.237Z,20.10
2019-06-20T23:47:33.220Z,20.00
2019-06-20T23:50:05.475Z,20.10
2019-06-20T23:52:38.902Z,20.10
2019-06-20T23:55:11.025Z,20.00
2019-06-20T23:57:42.817Z,20.10
